.
WxDataArchive / Data Records for 2007-01-23
2007-01-22 January 2007 2007-01-24

Data Records for Tuesday, 23 January 2007

Time	Temp	Chill	HIndex	Humid	Dewpt	 Wind 	HiWind	WindDir	Rain 	Barom 
-----	----	-----	------	-----	-----	------	------	-------	-----	----- 
00:00	27.9	27.9	27.9	84	23.7	3	9	270	0.00	29.972 
00:05	27.8	21.2	27.8	84	23.6	6	14	270	0.00	29.970 
00:10	27.8	23.2	27.8	84	23.6	4	14	270	0.00	29.967 
00:15	27.6	27.6	27.6	85	23.7	3	7	270	0.00	29.960 
00:20	27.6	27.6	27.6	85	23.7	3	10	248	0.00	29.962 
00:25	27.5	27.5	27.5	85	23.6	3	10	270	0.00	29.961 
00:30	27.5	22.9	27.5	84	23.3	4	9	270	0.00	29.959 
00:35	27.5	27.5	27.5	85	23.6	3	9	270	0.00	29.958 
00:40	27.3	21.6	27.3	84	23.1	5	13	270	0.00	29.959 
00:45	27.3	27.3	27.3	84	23.1	3	9	270	0.00	29.957 
00:50	27.3	22.6	27.3	84	23.1	4	7	270	0.00	29.958 
00:55	27.2	22.5	27.2	84	23.0	4	10	270	0.00	29.958 
01:00	27.2	27.2	27.2	84	23.0	3	10	270	0.00	29.955 
01:05	27.2	27.2	27.2	83	22.7	3	7	270	0.00	29.953 
01:10	27.0	27.0	27.0	82	22.3	3	7	270	0.00	29.953 
01:15	26.9	26.9	26.9	81	21.9	3	10	270	0.00	29.953 
01:20	26.6	20.7	26.6	80	21.3	5	12	270	0.00	29.950 
01:25	26.4	21.6	26.4	81	21.4	4	8	270	0.00	29.953 
01:30	26.3	26.3	26.3	81	21.3	3	9	270	0.00	29.944 
01:35	26.1	26.1	26.1	81	21.1	2	6	270	0.00	29.943 
01:40	26.1	26.1	26.1	81	21.1	3	11	248	0.00	29.943 
01:45	26.0	26.0	26.0	81	21.0	3	9	248	0.00	29.942 
01:50	26.0	26.0	26.0	81	21.0	3	9	248	0.00	29.940 
01:55	26.0	26.0	26.0	81	21.0	3	10	248	0.00	29.940 
02:00	25.8	20.9	25.8	81	20.8	4	11	270	0.00	29.941 
02:05	25.8	19.8	25.8	81	20.8	5	14	270	0.00	29.940 
02:10	25.8	25.8	25.8	81	20.8	3	9	248	0.00	29.940 
02:15	25.7	20.8	25.7	80	20.4	4	8	270	0.00	29.938 
02:20	25.7	25.7	25.7	80	20.4	3	7	270	0.00	29.939 
02:25	25.6	25.6	25.6	80	20.3	3	7	248	0.00	29.940 
02:30	25.6	25.6	25.6	80	20.3	2	6	248	0.00	29.939 
02:35	25.4	25.4	25.4	80	20.1	3	6	248	0.00	29.940 
02:40	25.4	25.4	25.4	81	20.4	3	12	248	0.00	29.940 
02:45	25.6	25.6	25.6	81	20.6	3	7	248	0.00	29.940 
02:50	25.6	25.6	25.6	81	20.6	3	6	248	0.00	29.935 
02:55	25.7	25.7	25.7	81	20.7	3	5	248	0.00	29.936 
03:00	25.7	25.7	25.7	81	20.7	3	7	248	0.00	29.939 
03:05	25.8	25.8	25.8	81	20.8	3	7	248	0.00	29.942 
03:10	25.8	25.8	25.8	81	20.8	3	12	270	0.00	29.944 
03:15	25.8	20.9	25.8	81	20.8	4	9	248	0.00	29.943 
03:20	26.0	26.0	26.0	81	21.0	3	6	248	0.00	29.942 
03:25	26.0	26.0	26.0	81	21.0	3	7	248	0.00	29.941 
03:30	26.0	21.1	26.0	81	21.0	4	12	248	0.00	29.939 
03:35	26.0	26.0	26.0	81	21.0	3	5	248	0.00	29.939 
03:40	26.0	26.0	26.0	81	21.0	3	7	248	0.00	29.940 
03:45	26.0	26.0	26.0	81	21.0	3	10	248	0.00	29.941 
03:50	26.0	21.1	26.0	81	21.0	4	10	270	0.00	29.939 
03:55	26.1	21.3	26.1	78	20.2	4	13	270	0.00	29.938 
04:00	26.1	20.1	26.1	81	21.1	5	14	270	0.00	29.939 
04:05	26.3	21.5	26.3	81	21.3	4	11	270	0.00	29.941 
04:10	26.3	21.5	26.3	81	21.3	4	11	248	0.00	29.939 
04:15	26.3	19.4	26.3	81	21.3	6	16	248	0.00	29.928 
04:20	26.3	26.3	26.3	81	21.3	3	6	270	0.00	29.927 
04:25	26.3	21.5	26.3	81	21.3	4	10	248	0.00	29.922 
04:30	26.3	19.4	26.3	81	21.3	6	17	270	0.00	29.922 
04:35	26.4	26.4	26.4	81	21.4	3	11	270	0.00	29.924 
04:40	26.4	26.4	26.4	81	21.4	3	8	270	0.00	29.927 
04:45	26.6	21.8	26.6	81	21.6	4	14	248	0.00	29.927 
04:50	26.6	21.8	26.6	81	21.6	4	11	270	0.00	29.926 
04:55	26.7	19.9	26.7	81	21.7	6	15	270	0.00	29.926 
05:00	26.7	22.0	26.7	80	21.4	4	10	248	0.00	29.924 
05:05	26.9	21.1	26.9	80	21.6	5	12	270	0.00	29.923 
05:10	26.9	22.2	26.9	80	21.6	4	10	270	0.00	29.918 
05:15	27.0	20.3	27.0	80	21.7	6	18	270	0.00	29.916 
05:20	27.0	21.2	27.0	80	21.7	5	13	270	0.00	29.912 
05:25	27.0	22.3	27.0	80	21.7	4	9	248	0.00	29.911 
05:30	27.2	21.4	27.2	80	21.9	5	10	270	0.00	29.911 
05:35	27.2	22.5	27.2	80	21.9	4	10	270	0.00	29.913 
05:40	27.2	22.5	27.2	80	21.9	4	12	270	0.00	29.911 
05:45	27.3	22.6	27.3	80	22.0	4	14	270	0.00	29.912 
05:50	27.3	21.6	27.3	79	21.7	5	11	270	0.00	29.912 
05:55	27.3	21.6	27.3	79	21.7	5	14	270	0.00	29.913 
06:00	27.3	22.6	27.3	79	21.7	4	10	270	0.00	29.911 
06:05	27.5	27.5	27.5	79	21.9	3	12	270	0.00	29.912 
06:10	27.5	21.8	27.5	78	21.6	5	10	270	0.00	29.913 
06:15	27.5	22.9	27.5	77	21.3	4	13	270	0.00	29.912 
06:20	27.6	23.0	27.6	77	21.4	4	9	270	0.00	29.911 
06:25	27.6	23.0	27.6	77	21.4	4	11	270	0.00	29.907 
06:30	27.6	21.9	27.6	76	21.0	5	16	270	0.00	29.910 
06:35	27.6	23.0	27.6	76	21.0	4	11	270	0.00	29.911 
06:40	27.6	27.6	27.6	77	21.4	2	5	248	0.00	29.912 
06:45	27.6	21.9	27.6	76	21.0	5	12	248	0.00	29.910 
06:50	27.6	23.0	27.6	76	21.0	4	16	270	0.00	29.911 
06:55	27.6	27.6	27.6	76	21.0	3	9	270	0.00	29.913 
07:00	27.6	23.0	27.6	76	21.0	4	8	270	0.00	29.913 
07:05	27.6	23.0	27.6	76	21.0	4	11	270	0.00	29.916 
07:10	27.6	23.0	27.6	76	21.0	4	10	270	0.00	29.919 
07:15	27.6	21.9	27.6	75	20.7	5	12	270	0.00	29.921 
07:20	27.6	21.0	27.6	75	20.7	6	14	270	0.00	29.916 
07:25	27.6	21.0	27.6	75	20.7	6	13	270	0.00	29.921 
07:30	27.6	21.0	27.6	74	20.4	6	14	270	0.00	29.918 
07:35	27.6	21.9	27.6	75	20.7	5	16	270	0.00	29.916 
07:40	27.6	21.9	27.6	74	20.4	5	14	270	0.00	29.917 
07:45	27.5	22.9	27.5	74	20.3	4	11	248	0.00	29.916 
07:50	27.6	21.9	27.6	75	20.7	5	14	270	0.00	29.916 
07:55	27.6	23.0	27.6	75	20.7	4	16	248	0.00	29.917 
08:00	27.6	21.9	27.6	75	20.7	5	12	270	0.00	29.922 
08:05	27.6	21.9	27.6	75	20.7	5	12	270	0.00	29.926 
08:10	27.6	20.2	27.6	74	20.4	7	15	270	0.00	29.925 
08:15	27.6	21.9	27.6	74	20.4	5	11	270	0.00	29.920 
08:20	27.6	23.0	27.6	75	20.7	4	10	270	0.00	29.922 
08:25	27.5	20.9	27.5	74	20.3	6	17	270	0.00	29.922 
08:30	27.5	21.8	27.5	75	20.6	5	15	270	0.00	29.918 
08:35	27.5	21.8	27.5	75	20.6	5	12	270	0.00	29.916 
08:40	27.5	20.1	27.5	74	20.3	7	17	270	0.00	29.913 
08:45	27.5	20.1	27.5	73	20.0	7	16	270	0.00	29.921 
08:50	27.5	20.9	27.5	74	20.3	6	14	270	0.00	29.923 
08:55	27.5	19.4	27.5	73	20.0	8	20	270	0.00	29.924 
09:00	27.5	20.1	27.5	74	20.3	7	14	270	0.00	29.924 
09:05	27.6	21.0	27.6	73	20.1	6	16	270	0.00	29.925 
09:10	27.6	21.0	27.6	73	20.1	6	16	270	0.00	29.925 
09:15	27.6	21.9	27.6	74	20.4	5	12	270	0.00	29.925 
09:20	27.6	21.9	27.6	74	20.4	5	13	270	0.00	29.925 
09:25	27.6	21.0	27.6	73	20.1	6	15	270	0.00	29.924 
09:30	27.8	21.2	27.8	74	20.6	6	15	270	0.00	29.924 
09:35	27.8	21.2	27.8	73	20.3	6	17	248	0.00	29.925 
09:40	27.8	19.7	27.8	73	20.3	8	18	270	0.00	29.921 
09:45	27.9	20.6	27.9	73	20.4	7	16	270	0.00	29.925 
09:50	27.9	20.6	27.9	73	20.4	7	17	270	0.00	29.924 
09:55	27.9	21.3	27.9	73	20.4	6	15	270	0.00	29.924 
10:00	27.9	21.3	27.9	73	20.4	6	15	270	0.00	29.924 
10:05	27.9	20.6	27.9	73	20.4	7	16	270	0.00	29.926 
10:10	28.1	20.1	28.1	73	20.6	8	16	270	0.00	29.920 
10:15	28.2	21.7	28.2	72	20.4	6	19	270	0.00	29.922 
10:20	28.2	22.6	28.2	72	20.4	5	11	270	0.00	29.924 
10:25	28.4	21.9	28.4	72	20.5	6	13	270	0.00	29.921 
10:30	28.4	21.2	28.4	72	20.5	7	17	270	0.00	29.923 
10:35	28.7	23.2	28.7	73	21.2	5	11	270	0.00	29.924 
10:40	29.0	24.6	29.0	73	21.4	4	12	270	0.00	29.926 
10:45	29.0	23.6	29.0	72	21.1	5	14	270	0.00	29.927 
10:50	29.1	24.7	29.1	72	21.2	4	10	270	0.00	29.927 
10:55	29.3	23.9	29.3	72	21.4	5	11	270	0.00	29.927 
11:00	29.4	25.1	29.4	72	21.5	4	7	270	0.00	29.925 
11:05	29.4	23.1	29.4	71	21.2	6	15	248	0.00	29.925 
11:10	29.1	23.7	29.1	71	20.9	5	14	270	0.00	29.924 
11:15	29.3	25.0	29.3	71	21.1	4	12	270	0.00	29.921 
11:20	29.5	22.5	29.5	70	20.9	7	15	270	0.00	29.919 
11:25	29.7	25.4	29.7	71	21.5	4	11	270	0.00	29.919 
11:30	29.7	22.0	29.7	70	21.1	8	14	270	0.00	29.915 
11:35	29.8	22.8	29.8	69	20.9	7	17	248	0.00	29.915 
11:40	29.7	22.7	29.7	70	21.1	7	16	270	0.00	29.911 
11:45	30.0	24.7	30.0	69	21.1	5	11	270	0.00	29.910 
11:50	30.0	25.8	30.0	70	21.4	4	11	248	0.00	29.910 
11:55	30.1	24.8	30.1	70	21.5	5	14	270	0.00	29.908 
12:00	30.0	24.7	30.0	69	21.1	5	13	270	0.00	29.906 
12:05	30.0	24.7	30.0	70	21.4	5	11	270	0.00	29.903 
12:10	30.3	26.1	30.3	69	21.4	4	11	270	0.00	29.901 
12:15	30.9	25.8	30.9	69	21.9	5	12	270	0.00	29.898 
12:20	31.0	26.9	31.0	68	21.7	4	11	270	0.00	29.898 
12:25	31.2	27.2	31.2	69	22.2	4	10	270	0.00	29.897 
12:30	31.6	26.6	31.6	66	21.6	5	11	270	0.00	29.892 
12:35	31.9	27.0	31.9	65	21.5	5	11	270	0.00	29.892 
12:40	31.9	26.1	31.9	66	21.9	6	13	270	0.00	29.892 
12:45	32.1	27.2	32.1	67	22.4	5	17	270	0.00	29.893 
12:50	31.8	27.8	31.8	66	21.8	4	11	270	0.00	29.892 
12:55	31.5	27.5	31.5	67	21.8	4	11	270	0.00	29.892 
13:00	31.2	26.1	31.2	66	21.2	5	13	270	0.00	29.892 
13:05	31.0	25.0	31.0	68	21.7	6	16	270	0.00	29.893 
13:10	31.2	27.2	31.2	67	21.5	4	7	270	0.00	29.892 
13:15	31.3	26.3	31.3	68	22.0	5	14	270	0.00	29.892 
13:20	31.5	27.5	31.5	67	21.8	4	10	270	0.00	29.890 
13:25	31.5	27.5	31.5	68	22.2	4	10	270	0.00	29.890 
13:30	31.5	27.5	31.5	68	22.2	4	9	270	0.00	29.891 
13:35	31.3	26.3	31.3	67	21.6	5	16	270	0.00	29.891 
13:40	31.3	25.4	31.3	67	21.6	6	17	270	0.00	29.892 
13:45	31.5	26.5	31.5	68	22.2	5	12	270	0.00	29.890 
13:50	31.2	25.3	31.2	68	21.9	6	14	270	0.00	29.889 
13:55	31.2	26.1	31.2	68	21.9	5	12	270	0.00	29.884 
14:00	31.2	27.2	31.2	69	22.2	4	13	270	0.00	29.881 
14:05	31.3	27.3	31.3	68	22.0	4	12	270	0.00	29.880 
14:10	31.0	25.0	31.0	68	21.7	6	12	270	0.00	29.880 
14:15	31.0	25.9	31.0	69	22.0	5	13	270	0.00	29.878 
14:20	30.9	24.9	30.9	69	21.9	6	16	270	0.00	29.877 
14:25	31.0	26.9	31.0	69	22.0	4	9	270	0.00	29.876 
14:30	31.0	26.9	31.0	69	22.0	4	11	270	0.00	29.876 
14:35	31.2	31.2	31.2	69	22.2	3	7	270	0.00	29.876 
14:40	31.3	27.3	31.3	69	22.3	4	7	248	0.00	29.873 
14:45	31.2	26.1	31.2	68	21.9	5	18	270	0.00	29.874 
14:50	31.0	26.9	31.0	69	22.0	4	12	270	0.00	29.873 
14:55	31.0	26.9	31.0	69	22.0	4	11	270	0.00	29.877 
15:00	31.2	31.2	31.2	70	22.6	3	10	270	0.00	29.875 
15:05	31.2	27.2	31.2	69	22.2	4	11	248	0.00	29.874 
15:10	31.2	31.2	31.2	69	22.2	3	7	248	0.00	29.876 
15:15	31.2	31.2	31.2	70	22.6	2	5	248	0.00	29.877 
15:20	31.3	31.3	31.3	69	22.3	3	10	270	0.00	29.878 
15:25	31.3	31.3	31.3	70	22.7	3	9	248	0.00	29.877 
15:30	31.3	31.3	31.3	70	22.7	2	9	248	0.00	29.878 
15:35	31.3	31.3	31.3	70	22.7	3	9	248	0.00	29.878 
15:40	31.3	27.3	31.3	70	22.7	4	7	248	0.00	29.880 
15:45	31.5	31.5	31.5	70	22.9	2	9	248	0.00	29.881 
15:50	31.5	31.5	31.5	70	22.9	3	7	248	0.00	29.882 
15:55	31.3	31.3	31.3	70	22.7	3	7	270	0.00	29.890 
16:00	31.2	31.2	31.2	71	22.9	3	11	248	0.00	29.893 
16:05	31.2	31.2	31.2	71	22.9	3	7	248	0.00	29.892 
16:10	31.2	27.2	31.2	71	22.9	4	10	270	0.00	29.892 
16:15	31.2	31.2	31.2	72	23.2	2	9	270	0.00	29.894 
16:20	31.0	31.0	31.0	72	23.1	2	6	248	0.00	29.901 
16:25	31.0	31.0	31.0	72	23.1	3	7	270	0.00	29.904 
16:30	31.0	31.0	31.0	72	23.1	3	7	270	0.00	29.906 
16:35	31.2	31.2	31.2	72	23.2	2	10	248	0.00	29.908 
16:40	31.2	31.2	31.2	72	23.2	3	9	248	0.00	29.906 
16:45	31.0	31.0	31.0	71	22.7	3	7	270	0.00	29.910 
16:50	31.0	31.0	31.0	72	23.1	2	8	248	0.00	29.914 
16:55	31.0	31.0	31.0	72	23.1	2	6	248	0.00	29.913 
17:00	31.0	31.0	31.0	73	23.4	3	7	270	0.00	29.912 
17:05	30.9	30.9	30.9	73	23.3	2	6	248	0.00	29.912 
17:10	30.9	30.9	30.9	73	23.3	3	7	270	0.00	29.913 
17:15	30.9	30.9	30.9	72	23.0	3	10	270	0.00	29.913 
17:20	30.9	25.8	30.9	73	23.3	5	15	270	0.00	29.915 
17:25	30.9	30.9	30.9	73	23.3	2	7	270	0.00	29.914 
17:30	30.9	30.9	30.9	73	23.3	3	10	270	0.00	29.915 
17:35	30.9	30.9	30.9	73	23.3	3	6	270	0.00	29.920 
17:40	30.9	30.9	30.9	74	23.6	2	7	270	0.00	29.923 
17:45	30.9	30.9	30.9	74	23.6	3	7	270	0.00	29.923 
17:50	30.9	30.9	30.9	74	23.6	2	5	248	0.00	29.925 
17:55	30.9	30.9	30.9	74	23.6	2	9	248	0.00	29.928 
18:00	30.9	30.9	30.9	74	23.6	3	7	248	0.00	29.927 
18:05	30.9	26.8	30.9	74	23.6	4	9	248	0.00	29.927 
18:10	30.9	30.9	30.9	74	23.6	1	4	248	0.00	29.926 
18:15	30.9	30.9	30.9	75	23.9	3	6	248	0.00	29.927 
18:20	30.9	30.9	30.9	75	23.9	2	6	248	0.00	29.929 
18:25	30.9	30.9	30.9	76	24.2	3	6	248	0.00	29.930 
18:30	30.9	30.9	30.9	76	24.2	2	6	248	0.00	29.934 
18:35	30.9	30.9	30.9	76	24.2	3	10	248	0.00	29.936 
18:40	30.9	30.9	30.9	76	24.2	2	6	248	0.00	29.938 
18:45	30.9	30.9	30.9	77	24.6	2	7	248	0.00	29.939 
18:50	30.9	30.9	30.9	77	24.6	2	5	248	0.00	29.941 
18:55	30.9	30.9	30.9	77	24.6	3	6	248	0.00	29.941 
19:00	30.9	30.9	30.9	77	24.6	2	6	248	0.00	29.942 
19:05	30.9	30.9	30.9	78	24.9	1	3	248	0.00	29.947 
19:10	30.7	30.7	30.7	78	24.7	2	5	248	0.00	29.949 
19:15	30.7	30.7	30.7	78	24.7	1	6	248	0.00	29.947 
19:20	30.9	30.9	30.9	78	24.9	3	7	248	0.00	29.948 
19:25	30.9	30.9	30.9	78	24.9	1	4	248	0.00	29.951 
19:30	30.9	30.9	30.9	78	24.9	1	4	248	0.00	29.948 
19:35	30.7	30.7	30.7	79	25.0	1	4	248	0.00	29.944 
19:40	30.7	30.7	30.7	79	25.0	1	4	248	0.00	29.946 
19:45	30.7	30.7	30.7	79	25.0	1	6	248	0.00	29.950 
19:50	30.7	30.7	30.7	79	25.0	1	5	248	0.00	29.950 
19:55	30.7	30.7	30.7	79	25.0	1	4	248	0.00	29.954 
20:00	30.9	30.9	30.9	79	25.2	1	5	248	0.00	29.956 
20:05	30.9	30.9	30.9	79	25.2	1	4	248	0.00	29.955 
20:10	30.9	30.9	30.9	79	25.2	1	4	248	0.00	29.955 
20:15	30.9	30.9	30.9	80	25.5	1	3	248	0.00	29.954 
20:20	30.9	30.9	30.9	80	25.5	1	2	248	0.00	29.953 
20:25	30.9	30.9	30.9	80	25.5	0	2	248	0.00	29.955 
20:30	30.7	30.7	30.7	80	25.3	0	2	248	0.00	29.955 
20:35	30.7	30.7	30.7	79	25.0	1	3	270	0.00	29.956 
20:40	30.7	30.7	30.7	79	25.0	1	2	270	0.00	29.956 
20:45	30.7	30.7	30.7	79	25.0	1	3	270	0.00	29.956 
20:50	30.7	30.7	30.7	78	24.7	1	4	248	0.00	29.954 
20:55	30.7	30.7	30.7	79	25.0	0	3	338	0.00	29.953 
21:00	30.6	30.6	30.6	78	24.6	0	2	338	0.00	29.953 
21:05	30.6	30.6	30.6	79	24.9	1	2	270	0.00	29.954 
21:10	30.6	30.6	30.6	78	24.6	0	2	292	0.00	29.954 
21:15	30.6	30.6	30.6	79	24.9	0	1	292	0.00	29.955 
21:20	30.4	30.4	30.4	77	24.1	1	4	270	0.00	29.956 
21:25	30.3	30.3	30.3	77	24.0	1	3	270	0.00	29.956 
21:30	30.3	30.3	30.3	77	24.0	1	4	270	0.00	29.957 
21:35	30.3	30.3	30.3	77	24.0	1	3	270	0.00	29.958 
21:40	30.1	30.1	30.1	76	23.5	1	7	248	0.00	29.959 
21:45	30.1	30.1	30.1	77	23.8	1	2	248	0.00	29.960 
21:50	30.1	30.1	30.1	76	23.5	0	2	270	0.00	29.959 
21:55	30.1	30.1	30.1	76	23.5	0	3	270	0.00	29.958 
22:00	29.8	29.8	29.8	77	23.5	1	3	270	0.00	29.963 
22:05	29.7	29.7	29.7	77	23.4	0	1	270	0.00	29.968 
22:10	29.5	29.5	29.5	78	23.5	0	1	270	0.00	29.968 
22:15	29.3	29.3	29.3	78	23.3	0	2	270	0.00	29.964 
22:20	29.1	29.1	29.1	78	23.1	0	2	292	0.00	29.968 
22:25	29.0	29.0	29.0	78	23.0	0	2	292	0.00	29.966 
22:30	28.8	28.8	28.8	78	22.8	0	2	292	0.00	29.968 
22:35	28.8	28.8	28.8	78	22.8	0	1	292	0.00	29.970 
22:40	28.8	28.8	28.8	78	22.8	0	1	292	0.00	29.970 
22:45	28.7	28.7	28.7	78	22.7	0	1	292	0.00	29.967 
22:50	28.5	28.5	28.5	78	22.5	0	2	292	0.00	29.967 
22:55	28.5	28.5	28.5	78	22.5	0	1	315	0.00	29.967 
23:00	28.5	28.5	28.5	78	22.5	0	2	315	0.00	29.965 
23:05	28.5	28.5	28.5	78	22.5	0	3	315	0.00	29.966 
23:10	28.4	28.4	28.4	79	22.7	0	1	315	0.00	29.968 
23:15	28.4	28.4	28.4	79	22.7	0	1	315	0.00	29.969 
23:20	28.4	28.4	28.4	79	22.7	0	2	315	0.00	29.967 
23:25	28.4	28.4	28.4	79	22.7	0	1	315	0.00	29.969 
23:30	28.4	28.4	28.4	79	22.7	0	2	315	0.00	29.970 
23:35	28.4	28.4	28.4	79	22.7	0	1	315	0.00	29.971 
23:40	28.4	28.4	28.4	79	22.7	0	1	315	0.00	29.972 
23:45	28.2	28.2	28.2	79	22.5	0	3	315	0.00	29.972 
23:50	28.2	28.2	28.2	78	22.2	0	2	270	0.00	29.972 
23:55	28.2	28.2	28.2	78	22.2	0	2	0	0.00	29.972 

CoCoRaHS
IN-AL-39
A2 Web Hosting
Creative Commons License
GoDaddy
Look for:

loaded 2017-12-13 16:02:53 • last modified 2010-11-18 10:43:29
Privacy PolicyDisclaimer
• wx.awcolley.com is powered by PmWiki v.2002016 •
• all content (unless otherwise noted) © 2017 A W Colley